sensor_id;sensor_type;location;lat;lon;timestamp;P1;durP1;ratioP1;P2;durP2;ratioP2
36443;SDS011;24692;45.642;13.806;2023-02-18T00:00:59;188.27;;;75.10;;
36443;SDS011;24692;45.642;13.806;2023-02-18T00:03:26;201.27;;;76.87;;
36443;SDS011;24692;45.642;13.806;2023-02-18T00:05:53;201.13;;;79.70;;
36443;SDS011;24692;45.642;13.806;2023-02-18T00:08:19;190.57;;;77.63;;
36443;SDS011;24692;45.642;13.806;2023-02-18T00:10:45;200.57;;;78.03;;
36443;SDS011;24692;45.642;13.806;2023-02-18T00:13:12;190.53;;;77.97;;
36443;SDS011;24692;45.642;13.806;2023-02-18T00:15:38;182.43;;;74.93;;
36443;SDS011;24692;45.642;13.806;2023-02-18T00:18:04;173.67;;;75.63;;
36443;SDS011;24692;45.642;13.806;2023-02-18T00:20:31;185.70;;;76.10;;
36443;SDS011;24692;45.642;13.806;2023-02-18T00:23:00;187.83;;;75.20;;
36443;SDS011;24692;45.642;13.806;2023-02-18T00:25:27;184.57;;;75.53;;
36443;SDS011;24692;45.642;13.806;2023-02-18T00:27:53;178.87;;;75.87;;
36443;SDS011;24692;45.642;13.806;2023-02-18T00:30:18;191.43;;;75.93;;
36443;SDS011;24692;45.642;13.806;2023-02-18T00:32:44;172.83;;;73.67;;
36443;SDS011;24692;45.642;13.806;2023-02-18T00:35:10;162.00;;;77.37;;
36443;SDS011;24692;45.642;13.806;2023-02-18T00:37:35;169.17;;;74.77;;
36443;SDS011;24692;45.642;13.806;2023-02-18T00:40:01;164.70;;;72.90;;
36443;SDS011;24692;45.642;13.806;2023-02-18T00:42:27;158.50;;;71.50;;
36443;SDS011;24692;45.642;13.806;2023-02-18T00:44:53;158.83;;;73.57;;
36443;SDS011;24692;45.642;13.806;2023-02-18T00:47:19;146.87;;;69.97;;
36443;SDS011;24692;45.642;13.806;2023-02-18T00:49:44;151.53;;;71.73;;
36443;SDS011;24692;45.642;13.806;2023-02-18T00:52:10;155.43;;;71.27;;
36443;SDS011;24692;45.642;13.806;2023-02-18T00:54:36;149.13;;;71.60;;
36443;SDS011;24692;45.642;13.806;2023-02-18T00:57:01;144.30;;;74.30;;
36443;SDS011;24692;45.642;13.806;2023-02-18T00:59:27;141.90;;;72.87;;
36443;SDS011;24692;45.642;13.806;2023-02-18T01:01:53;142.13;;;74.57;;
36443;SDS011;24692;45.642;13.806;2023-02-18T01:04:18;136.00;;;71.63;;
36443;SDS011;24692;45.642;13.806;2023-02-18T01:06:44;131.93;;;71.77;;
36443;SDS011;24692;45.642;13.806;2023-02-18T01:09:09;134.93;;;73.17;;
36443;SDS011;24692;45.642;13.806;2023-02-18T01:11:35;144.07;;;73.43;;
36443;SDS011;24692;45.642;13.806;2023-02-18T01:14:01;135.93;;;71.23;;
36443;SDS011;24692;45.642;13.806;2023-02-18T01:16:27;144.47;;;72.57;;
36443;SDS011;24692;45.642;13.806;2023-02-18T01:18:53;136.13;;;69.87;;
36443;SDS011;24692;45.642;13.806;2023-02-18T01:21:18;139.03;;;69.77;;
36443;SDS011;24692;45.642;13.806;2023-02-18T01:23:44;141.43;;;72.60;;
36443;SDS011;24692;45.642;13.806;2023-02-18T01:26:10;139.73;;;71.90;;
36443;SDS011;24692;45.642;13.806;2023-02-18T01:28:36;142.00;;;73.30;;
36443;SDS011;24692;45.642;13.806;2023-02-18T01:31:05;143.47;;;73.23;;
36443;SDS011;24692;45.642;13.806;2023-02-18T01:33:32;142.67;;;71.87;;
36443;SDS011;24692;45.642;13.806;2023-02-18T01:35:58;144.90;;;74.37;;
36443;SDS011;24692;45.642;13.806;2023-02-18T01:38:24;141.93;;;73.73;;
36443;SDS011;24692;45.642;13.806;2023-02-18T01:40:50;142.83;;;73.10;;
36443;SDS011;24692;45.642;13.806;2023-02-18T01:43:17;141.00;;;70.77;;
36443;SDS011;24692;45.642;13.806;2023-02-18T01:48:28;144.30;;;71.17;;
36443;SDS011;24692;45.642;13.806;2023-02-18T01:51:05;149.97;;;76.63;;
36443;SDS011;24692;45.642;13.806;2023-02-18T01:53:51;145.40;;;75.30;;
36443;SDS011;24692;45.642;13.806;2023-02-18T01:56:33;144.73;;;73.47;;
36443;SDS011;24692;45.642;13.806;2023-02-18T01:59:08;140.30;;;71.73;;
36443;SDS011;24692;45.642;13.806;2023-02-18T02:01:38;136.63;;;71.30;;
36443;SDS011;24692;45.642;13.806;2023-02-18T02:04:06;135.07;;;73.23;;
36443;SDS011;24692;45.642;13.806;2023-02-18T02:06:31;141.87;;;74.40;;
36443;SDS011;24692;45.642;13.806;2023-02-18T02:08:58;138.30;;;74.07;;
36443;SDS011;24692;45.642;13.806;2023-02-18T02:17:20;133.30;;;71.40;;
36443;SDS011;24692;45.642;13.806;2023-02-18T02:25:23;130.10;;;72.60;;
36443;SDS011;24692;45.642;13.806;2023-02-18T02:28:16;124.23;;;71.30;;
36443;SDS011;24692;45.642;13.806;2023-02-18T02:33:47;126.27;;;70.37;;
36443;SDS011;24692;45.642;13.806;2023-02-18T02:36:22;133.67;;;72.87;;
36443;SDS011;24692;45.642;13.806;2023-02-18T02:44:19;128.90;;;71.37;;
36443;SDS011;24692;45.642;13.806;2023-02-18T02:46:47;126.50;;;72.50;;
36443;SDS011;24692;45.642;13.806;2023-02-18T02:49:19;125.53;;;70.77;;
36443;SDS011;24692;45.642;13.806;2023-02-18T02:52:14;124.40;;;69.40;;
36443;SDS011;24692;45.642;13.806;2023-02-18T02:54:46;120.40;;;68.33;;
36443;SDS011;24692;45.642;13.806;2023-02-18T02:59:40;121.23;;;67.63;;
36443;SDS011;24692;45.642;13.806;2023-02-18T03:07:52;105.43;;;61.07;;
36443;SDS011;24692;45.642;13.806;2023-02-18T03:24:31;101.47;;;58.43;;
36443;SDS011;24692;45.642;13.806;2023-02-18T03:27:43;106.33;;;59.87;;
36443;SDS011;24692;45.642;13.806;2023-02-18T03:30:06;96.83;;;56.27;;
36443;SDS011;24692;45.642;13.806;2023-02-18T03:32:34;93.90;;;56.03;;
36443;SDS011;24692;45.642;13.806;2023-02-18T03:35:06;92.47;;;53.23;;
36443;SDS011;24692;45.642;13.806;2023-02-18T03:37:42;91.33;;;52.90;;
36443;SDS011;24692;45.642;13.806;2023-02-18T03:40:12;89.07;;;52.83;;
36443;SDS011;24692;45.642;13.806;2023-02-18T03:42:39;87.03;;;53.17;;
36443;SDS011;24692;45.642;13.806;2023-02-18T03:45:05;90.80;;;53.83;;
36443;SDS011;24692;45.642;13.806;2023-02-18T03:47:31;90.90;;;54.10;;
36443;SDS011;24692;45.642;13.806;2023-02-18T03:49:57;95.90;;;56.47;;
36443;SDS011;24692;45.642;13.806;2023-02-18T03:52:22;89.63;;;51.80;;
36443;SDS011;24692;45.642;13.806;2023-02-18T03:54:48;88.70;;;53.27;;
36443;SDS011;24692;45.642;13.806;2023-02-18T03:57:14;88.63;;;54.60;;
36443;SDS011;24692;45.642;13.806;2023-02-18T03:59:40;87.13;;;52.17;;
36443;SDS011;24692;45.642;13.806;2023-02-18T04:02:06;89.63;;;53.33;;
36443;SDS011;24692;45.642;13.806;2023-02-18T04:04:31;85.87;;;52.27;;
36443;SDS011;24692;45.642;13.806;2023-02-18T04:06:57;93.33;;;55.20;;
36443;SDS011;24692;45.642;13.806;2023-02-18T04:09:23;91.60;;;52.43;;
36443;SDS011;24692;45.642;13.806;2023-02-18T04:11:48;90.23;;;53.03;;
36443;SDS011;24692;45.642;13.806;2023-02-18T04:14:14;92.43;;;53.20;;
36443;SDS011;24692;45.642;13.806;2023-02-18T04:16:40;88.07;;;52.20;;
36443;SDS011;24692;45.642;13.806;2023-02-18T04:19:05;90.00;;;53.87;;
36443;SDS011;24692;45.642;13.806;2023-02-18T04:21:31;91.30;;;53.40;;
36443;SDS011;24692;45.642;13.806;2023-02-18T04:23:58;91.00;;;53.23;;
36443;SDS011;24692;45.642;13.806;2023-02-18T04:26:24;84.33;;;50.97;;
36443;SDS011;24692;45.642;13.806;2023-02-18T04:28:50;79.83;;;47.63;;
36443;SDS011;24692;45.642;13.806;2023-02-18T04:31:15;77.53;;;46.67;;
36443;SDS011;24692;45.642;13.806;2023-02-18T04:33:41;75.70;;;45.60;;
36443;SDS011;24692;45.642;13.806;2023-02-18T04:36:07;69.90;;;41.53;;
36443;SDS011;24692;45.642;13.806;2023-02-18T04:38:33;72.37;;;42.37;;
36443;SDS011;24692;45.642;13.806;2023-02-18T04:40:59;75.53;;;46.83;;
36443;SDS011;24692;45.642;13.806;2023-02-18T04:43:24;73.03;;;45.17;;
36443;SDS011;24692;45.642;13.806;2023-02-18T04:45:50;72.27;;;44.87;;
36443;SDS011;24692;45.642;13.806;2023-02-18T04:48:16;69.93;;;43.43;;
36443;SDS011;24692;45.642;13.806;2023-02-18T04:50:42;77.13;;;45.70;;
36443;SDS011;24692;45.642;13.806;2023-02-18T04:53:08;70.20;;;42.93;;
36443;SDS011;24692;45.642;13.806;2023-02-18T04:55:34;68.03;;;42.53;;
36443;SDS011;24692;45.642;13.806;2023-02-18T04:57:59;72.30;;;43.27;;
36443;SDS011;24692;45.642;13.806;2023-02-18T05:00:25;67.03;;;40.53;;
36443;SDS011;24692;45.642;13.806;2023-02-18T05:02:52;69.80;;;41.20;;
36443;SDS011;24692;45.642;13.806;2023-02-18T05:05:18;65.17;;;39.73;;
36443;SDS011;24692;45.642;13.806;2023-02-18T05:07:44;65.00;;;40.77;;
36443;SDS011;24692;45.642;13.806;2023-02-18T05:10:10;60.37;;;39.67;;
36443;SDS011;24692;45.642;13.806;2023-02-18T05:12:39;63.50;;;39.13;;
36443;SDS011;24692;45.642;13.806;2023-02-18T05:15:05;60.93;;;37.70;;
36443;SDS011;24692;45.642;13.806;2023-02-18T05:17:31;62.73;;;38.93;;
36443;SDS011;24692;45.642;13.806;2023-02-18T05:19:57;61.90;;;38.43;;
36443;SDS011;24692;45.642;13.806;2023-02-18T05:22:22;64.03;;;39.97;;
36443;SDS011;24692;45.642;13.806;2023-02-18T05:24:48;61.43;;;38.43;;
36443;SDS011;24692;45.642;13.806;2023-02-18T05:27:14;61.10;;;39.17;;
36443;SDS011;24692;45.642;13.806;2023-02-18T05:29:39;62.37;;;38.67;;
36443;SDS011;24692;45.642;13.806;2023-02-18T05:32:05;61.23;;;37.53;;
36443;SDS011;24692;45.642;13.806;2023-02-18T05:34:30;61.60;;;37.20;;
36443;SDS011;24692;45.642;13.806;2023-02-18T05:36:56;58.33;;;37.30;;
36443;SDS011;24692;45.642;13.806;2023-02-18T05:39:22;56.53;;;36.43;;
36443;SDS011;24692;45.642;13.806;2023-02-18T05:41:47;57.17;;;35.97;;
36443;SDS011;24692;45.642;13.806;2023-02-18T05:44:13;57.57;;;36.40;;
36443;SDS011;24692;45.642;13.806;2023-02-18T05:46:54;59.70;;;35.27;;
36443;SDS011;24692;45.642;13.806;2023-02-18T05:49:23;54.20;;;35.63;;
36443;SDS011;24692;45.642;13.806;2023-02-18T05:51:48;56.27;;;35.87;;
36443;SDS011;24692;45.642;13.806;2023-02-18T05:54:14;55.30;;;34.67;;
36443;SDS011;24692;45.642;13.806;2023-02-18T05:56:40;60.57;;;36.17;;
36443;SDS011;24692;45.642;13.806;2023-02-18T05:59:05;60.20;;;37.17;;
36443;SDS011;24692;45.642;13.806;2023-02-18T06:01:31;63.37;;;39.60;;
36443;SDS011;24692;45.642;13.806;2023-02-18T06:03:57;65.50;;;40.33;;
36443;SDS011;24692;45.642;13.806;2023-02-18T06:06:23;64.67;;;40.67;;
36443;SDS011;24692;45.642;13.806;2023-02-18T06:08:49;68.53;;;38.07;;
36443;SDS011;24692;45.642;13.806;2023-02-18T06:11:15;62.77;;;38.67;;
36443;SDS011;24692;45.642;13.806;2023-02-18T06:13:40;59.30;;;37.73;;
36443;SDS011;24692;45.642;13.806;2023-02-18T06:16:06;60.20;;;37.07;;
36443;SDS011;24692;45.642;13.806;2023-02-18T06:18:32;58.47;;;37.70;;
36443;SDS011;24692;45.642;13.806;2023-02-18T06:20:57;57.50;;;36.70;;
36443;SDS011;24692;45.642;13.806;2023-02-18T06:23:23;56.53;;;36.17;;
36443;SDS011;24692;45.642;13.806;2023-02-18T06:25:49;57.80;;;37.10;;
36443;SDS011;24692;45.642;13.806;2023-02-18T06:28:15;57.80;;;36.53;;
36443;SDS011;24692;45.642;13.806;2023-02-18T06:30:41;58.80;;;35.63;;
36443;SDS011;24692;45.642;13.806;2023-02-18T06:33:06;62.87;;;36.83;;
36443;SDS011;24692;45.642;13.806;2023-02-18T06:35:32;57.00;;;37.67;;
36443;SDS011;24692;45.642;13.806;2023-02-18T06:37:59;57.63;;;36.37;;
36443;SDS011;24692;45.642;13.806;2023-02-18T06:40:24;61.20;;;37.00;;
36443;SDS011;24692;45.642;13.806;2023-02-18T06:42:50;58.13;;;35.47;;
36443;SDS011;24692;45.642;13.806;2023-02-18T06:45:15;54.93;;;35.50;;
36443;SDS011;24692;45.642;13.806;2023-02-18T06:47:41;56.77;;;36.10;;
36443;SDS011;24692;45.642;13.806;2023-02-18T06:50:07;54.10;;;35.13;;
36443;SDS011;24692;45.642;13.806;2023-02-18T06:52:33;57.53;;;36.57;;
36443;SDS011;24692;45.642;13.806;2023-02-18T06:54:59;52.67;;;33.77;;
36443;SDS011;24692;45.642;13.806;2023-02-18T06:57:25;55.33;;;35.27;;
36443;SDS011;24692;45.642;13.806;2023-02-18T06:59:50;58.93;;;35.73;;
36443;SDS011;24692;45.642;13.806;2023-02-18T07:02:16;57.20;;;36.20;;
36443;SDS011;24692;45.642;13.806;2023-02-18T07:04:42;57.00;;;36.10;;
36443;SDS011;24692;45.642;13.806;2023-02-18T07:07:09;58.87;;;34.87;;
36443;SDS011;24692;45.642;13.806;2023-02-18T07:09:35;58.97;;;37.10;;
36443;SDS011;24692;45.642;13.806;2023-02-18T07:12:00;60.77;;;38.13;;
36443;SDS011;24692;45.642;13.806;2023-02-18T07:14:26;56.30;;;35.17;;
36443;SDS011;24692;45.642;13.806;2023-02-18T07:16:52;58.70;;;36.63;;
36443;SDS011;24692;45.642;13.806;2023-02-18T07:19:18;61.53;;;38.47;;
36443;SDS011;24692;45.642;13.806;2023-02-18T07:21:45;56.93;;;36.73;;
36443;SDS011;24692;45.642;13.806;2023-02-18T07:24:11;58.13;;;37.43;;
36443;SDS011;24692;45.642;13.806;2023-02-18T07:26:37;61.97;;;38.33;;
36443;SDS011;24692;45.642;13.806;2023-02-18T07:29:03;60.10;;;36.90;;
36443;SDS011;24692;45.642;13.806;2023-02-18T07:31:28;61.87;;;39.90;;
36443;SDS011;24692;45.642;13.806;2023-02-18T07:33:54;60.93;;;37.67;;
36443;SDS011;24692;45.642;13.806;2023-02-18T07:36:19;57.30;;;37.73;;
36443;SDS011;24692;45.642;13.806;2023-02-18T07:38:45;62.97;;;40.00;;
36443;SDS011;24692;45.642;13.806;2023-02-18T07:41:20;62.03;;;37.53;;
36443;SDS011;24692;45.642;13.806;2023-02-18T07:43:47;65.07;;;39.77;;
36443;SDS011;24692;45.642;13.806;2023-02-18T07:46:13;59.40;;;37.80;;
36443;SDS011;24692;45.642;13.806;2023-02-18T07:48:39;58.27;;;37.07;;
36443;SDS011;24692;45.642;13.806;2023-02-18T07:51:05;58.97;;;38.23;;
36443;SDS011;24692;45.642;13.806;2023-02-18T07:53:32;59.33;;;37.47;;
36443;SDS011;24692;45.642;13.806;2023-02-18T07:55:58;58.43;;;39.00;;
36443;SDS011;24692;45.642;13.806;2023-02-18T07:58:25;65.10;;;37.37;;
36443;SDS011;24692;45.642;13.806;2023-02-18T08:00:55;62.20;;;39.57;;
36443;SDS011;24692;45.642;13.806;2023-02-18T08:03:22;59.90;;;37.53;;
36443;SDS011;24692;45.642;13.806;2023-02-18T08:05:51;60.53;;;38.60;;
36443;SDS011;24692;45.642;13.806;2023-02-18T08:08:19;59.23;;;38.03;;
36443;SDS011;24692;45.642;13.806;2023-02-18T08:10:46;62.47;;;37.43;;
36443;SDS011;24692;45.642;13.806;2023-02-18T08:13:13;58.50;;;37.77;;
36443;SDS011;24692;45.642;13.806;2023-02-18T08:15:39;58.17;;;38.07;;
36443;SDS011;24692;45.642;13.806;2023-02-18T08:18:05;62.23;;;38.40;;
36443;SDS011;24692;45.642;13.806;2023-02-18T08:20:36;59.13;;;37.43;;
36443;SDS011;24692;45.642;13.806;2023-02-18T08:23:02;61.40;;;37.77;;
36443;SDS011;24692;45.642;13.806;2023-02-18T08:25:29;63.30;;;38.47;;
36443;SDS011;24692;45.642;13.806;2023-02-18T08:27:55;60.83;;;39.30;;
36443;SDS011;24692;45.642;13.806;2023-02-18T08:30:21;57.87;;;37.13;;
36443;SDS011;24692;45.642;13.806;2023-02-18T08:32:46;58.57;;;37.20;;
36443;SDS011;24692;45.642;13.806;2023-02-18T08:35:12;59.87;;;37.67;;
36443;SDS011;24692;45.642;13.806;2023-02-18T08:37:38;63.40;;;39.60;;
36443;SDS011;24692;45.642;13.806;2023-02-18T08:40:04;63.53;;;39.23;;
36443;SDS011;24692;45.642;13.806;2023-02-18T08:42:30;63.57;;;38.60;;
36443;SDS011;24692;45.642;13.806;2023-02-18T08:44:56;59.23;;;39.00;;
36443;SDS011;24692;45.642;13.806;2023-02-18T08:47:22;59.70;;;39.23;;
36443;SDS011;24692;45.642;13.806;2023-02-18T08:49:47;61.43;;;39.07;;
36443;SDS011;24692;45.642;13.806;2023-02-18T08:52:13;62.63;;;39.40;;
36443;SDS011;24692;45.642;13.806;2023-02-18T08:54:39;60.10;;;38.30;;
36443;SDS011;24692;45.642;13.806;2023-02-18T08:57:04;59.33;;;36.77;;
36443;SDS011;24692;45.642;13.806;2023-02-18T08:59:30;59.73;;;36.97;;
36443;SDS011;24692;45.642;13.806;2023-02-18T09:01:56;62.43;;;37.87;;
36443;SDS011;24692;45.642;13.806;2023-02-18T09:04:21;57.30;;;37.97;;
36443;SDS011;24692;45.642;13.806;2023-02-18T09:06:47;56.07;;;37.20;;
36443;SDS011;24692;45.642;13.806;2023-02-18T09:09:14;58.83;;;36.90;;
36443;SDS011;24692;45.642;13.806;2023-02-18T09:11:41;57.40;;;36.07;;
36443;SDS011;24692;45.642;13.806;2023-02-18T09:14:06;56.13;;;35.80;;
36443;SDS011;24692;45.642;13.806;2023-02-18T09:16:32;56.57;;;37.13;;
36443;SDS011;24692;45.642;13.806;2023-02-18T09:18:58;56.00;;;36.43;;
36443;SDS011;24692;45.642;13.806;2023-02-18T09:21:24;56.80;;;36.77;;
36443;SDS011;24692;45.642;13.806;2023-02-18T09:23:51;56.90;;;37.23;;
36443;SDS011;24692;45.642;13.806;2023-02-18T09:26:17;57.40;;;35.90;;
36443;SDS011;24692;45.642;13.806;2023-02-18T09:28:48;55.63;;;36.33;;
36443;SDS011;24692;45.642;13.806;2023-02-18T09:31:16;54.17;;;36.90;;
36443;SDS011;24692;45.642;13.806;2023-02-18T09:33:45;53.93;;;35.90;;
36443;SDS011;24692;45.642;13.806;2023-02-18T09:36:17;58.43;;;37.53;;
36443;SDS011;24692;45.642;13.806;2023-02-18T09:38:43;57.53;;;37.17;;
36443;SDS011;24692;45.642;13.806;2023-02-18T09:41:54;57.80;;;37.30;;
36443;SDS011;24692;45.642;13.806;2023-02-18T09:43:56;54.53;;;36.80;;
36443;SDS011;24692;45.642;13.806;2023-02-18T09:46:32;54.63;;;35.83;;
36443;SDS011;24692;45.642;13.806;2023-02-18T09:49:03;54.33;;;36.67;;
36443;SDS011;24692;45.642;13.806;2023-02-18T09:51:36;56.37;;;36.07;;
36443;SDS011;24692;45.642;13.806;2023-02-18T09:54:02;58.97;;;37.37;;
36443;SDS011;24692;45.642;13.806;2023-02-18T09:56:29;53.83;;;35.13;;
36443;SDS011;24692;45.642;13.806;2023-02-18T09:58:57;56.27;;;35.23;;
36443;SDS011;24692;45.642;13.806;2023-02-18T10:01:31;49.33;;;33.07;;
36443;SDS011;24692;45.642;13.806;2023-02-18T10:04:01;50.27;;;32.97;;
36443;SDS011;24692;45.642;13.806;2023-02-18T10:06:32;50.93;;;34.23;;
36443;SDS011;24692;45.642;13.806;2023-02-18T10:09:06;52.63;;;34.73;;
36443;SDS011;24692;45.642;13.806;2023-02-18T10:11:44;50.83;;;34.20;;
36443;SDS011;24692;45.642;13.806;2023-02-18T10:14:13;51.43;;;34.53;;
36443;SDS011;24692;45.642;13.806;2023-02-18T10:16:39;49.80;;;33.80;;
36443;SDS011;24692;45.642;13.806;2023-02-18T10:19:12;50.57;;;34.40;;
36443;SDS011;24692;45.642;13.806;2023-02-18T10:21:57;48.77;;;33.90;;
36443;SDS011;24692;45.642;13.806;2023-02-18T10:26:56;54.17;;;34.60;;
36443;SDS011;24692;45.642;13.806;2023-02-18T10:29:23;47.50;;;33.43;;
36443;SDS011;24692;45.642;13.806;2023-02-18T10:37:19;51.23;;;33.57;;
36443;SDS011;24692;45.642;13.806;2023-02-18T10:40:08;49.80;;;32.77;;
36443;SDS011;24692;45.642;13.806;2023-02-18T10:42:58;47.67;;;32.00;;
36443;SDS011;24692;45.642;13.806;2023-02-18T10:51:15;50.13;;;33.13;;
36443;SDS011;24692;45.642;13.806;2023-02-18T10:53:53;50.90;;;34.07;;
36443;SDS011;24692;45.642;13.806;2023-02-18T10:59:11;50.83;;;33.27;;
36443;SDS011;24692;45.642;13.806;2023-02-18T11:01:44;50.30;;;33.30;;
36443;SDS011;24692;45.642;13.806;2023-02-18T11:04:17;49.53;;;32.97;;
36443;SDS011;24692;45.642;13.806;2023-02-18T11:06:46;48.37;;;31.93;;
36443;SDS011;24692;45.642;13.806;2023-02-18T11:12:01;46.60;;;31.37;;
36443;SDS011;24692;45.642;13.806;2023-02-18T11:14:35;54.30;;;36.47;;
36443;SDS011;24692;45.642;13.806;2023-02-18T11:19:50;46.67;;;32.87;;
36443;SDS011;24692;45.642;13.806;2023-02-18T11:22:25;47.87;;;33.37;;
36443;SDS011;24692;45.642;13.806;2023-02-18T11:24:54;59.43;;;41.37;;
36443;SDS011;24692;45.642;13.806;2023-02-18T11:29:57;63.50;;;43.20;;
36443;SDS011;24692;45.642;13.806;2023-02-18T11:32:26;60.33;;;40.53;;
36443;SDS011;24692;45.642;13.806;2023-02-18T11:34:53;58.67;;;39.43;;
36443;SDS011;24692;45.642;13.806;2023-02-18T11:37:19;52.77;;;36.33;;
36443;SDS011;24692;45.642;13.806;2023-02-18T11:39:47;66.40;;;42.27;;
36443;SDS011;24692;45.642;13.806;2023-02-18T11:42:16;58.83;;;40.40;;
36443;SDS011;24692;45.642;13.806;2023-02-18T11:44:57;74.80;;;48.33;;
36443;SDS011;24692;45.642;13.806;2023-02-18T11:50:13;74.90;;;45.40;;
36443;SDS011;24692;45.642;13.806;2023-02-18T11:52:42;92.43;;;56.17;;
36443;SDS011;24692;45.642;13.806;2023-02-18T11:58:04;77.00;;;46.47;;
36443;SDS011;24692;45.642;13.806;2023-02-18T12:00:50;78.73;;;48.93;;
36443;SDS011;24692;45.642;13.806;2023-02-18T12:06:22;68.80;;;42.40;;
36443;SDS011;24692;45.642;13.806;2023-02-18T12:08:53;69.00;;;43.80;;
36443;SDS011;24692;45.642;13.806;2023-02-18T12:11:28;64.30;;;41.10;;
36443;SDS011;24692;45.642;13.806;2023-02-18T12:13:58;69.47;;;42.43;;
36443;SDS011;24692;45.642;13.806;2023-02-18T12:16:29;62.53;;;39.67;;
36443;SDS011;24692;45.642;13.806;2023-02-18T12:19:18;60.00;;;38.57;;
36443;SDS011;24692;45.642;13.806;2023-02-18T12:22:11;62.83;;;39.33;;
36443;SDS011;24692;45.642;13.806;2023-02-18T12:25:03;57.67;;;38.53;;
36443;SDS011;24692;45.642;13.806;2023-02-18T12:27:54;56.40;;;38.27;;
36443;SDS011;24692;45.642;13.806;2023-02-18T12:33:12;55.73;;;37.57;;
36443;SDS011;24692;45.642;13.806;2023-02-18T12:36:11;58.47;;;38.40;;
36443;SDS011;24692;45.642;13.806;2023-02-18T12:38:54;57.93;;;37.53;;
36443;SDS011;24692;45.642;13.806;2023-02-18T12:41:49;57.77;;;37.20;;
36443;SDS011;24692;45.642;13.806;2023-02-18T13:07:58;59.70;;;38.00;;
36443;SDS011;24692;45.642;13.806;2023-02-18T13:10:50;59.93;;;37.80;;
36443;SDS011;24692;45.642;13.806;2023-02-18T13:13:32;56.90;;;36.57;;
36443;SDS011;24692;45.642;13.806;2023-02-18T13:16:09;52.23;;;35.97;;
36443;SDS011;24692;45.642;13.806;2023-02-18T13:18:39;57.40;;;38.23;;
36443;SDS011;24692;45.642;13.806;2023-02-18T13:21:12;62.17;;;37.87;;
36443;SDS011;24692;45.642;13.806;2023-02-18T13:23:42;62.27;;;40.50;;
36443;SDS011;24692;45.642;13.806;2023-02-18T13:26:13;61.07;;;39.97;;
36443;SDS011;24692;45.642;13.806;2023-02-18T13:39:55;57.73;;;36.80;;
36443;SDS011;24692;45.642;13.806;2023-02-18T13:42:24;58.30;;;39.03;;
36443;SDS011;24692;45.642;13.806;2023-02-18T13:52:50;62.70;;;42.13;;
36443;SDS011;24692;45.642;13.806;2023-02-18T13:55:25;62.30;;;40.80;;
36443;SDS011;24692;45.642;13.806;2023-02-18T13:58:00;65.23;;;41.70;;
36443;SDS011;24692;45.642;13.806;2023-02-18T14:00:33;60.87;;;41.27;;
36443;SDS011;24692;45.642;13.806;2023-02-18T14:03:09;62.73;;;40.93;;
36443;SDS011;24692;45.642;13.806;2023-02-18T14:06:12;55.90;;;37.60;;
36443;SDS011;24692;45.642;13.806;2023-02-18T14:08:38;53.10;;;36.40;;
36443;SDS011;24692;45.642;13.806;2023-02-18T14:16:11;50.07;;;35.50;;
36443;SDS011;24692;45.642;13.806;2023-02-18T14:36:29;67.50;;;42.10;;
36443;SDS011;24692;45.642;13.806;2023-02-18T14:47:02;80.50;;;45.70;;
36443;SDS011;24692;45.642;13.806;2023-02-18T14:49:48;79.23;;;45.73;;
36443;SDS011;24692;45.642;13.806;2023-02-18T14:52:22;80.20;;;46.93;;
36443;SDS011;24692;45.642;13.806;2023-02-18T14:54:55;82.47;;;48.37;;
36443;SDS011;24692;45.642;13.806;2023-02-18T14:57:26;86.10;;;48.97;;
36443;SDS011;24692;45.642;13.806;2023-02-18T14:59:59;82.87;;;48.40;;
36443;SDS011;24692;45.642;13.806;2023-02-18T15:02:26;90.00;;;51.00;;
36443;SDS011;24692;45.642;13.806;2023-02-18T15:05:03;85.43;;;49.63;;
36443;SDS011;24692;45.642;13.806;2023-02-18T15:07:36;84.63;;;48.47;;
36443;SDS011;24692;45.642;13.806;2023-02-18T15:10:01;83.30;;;47.43;;
36443;SDS011;24692;45.642;13.806;2023-02-18T15:12:27;89.57;;;48.50;;
36443;SDS011;24692;45.642;13.806;2023-02-18T15:14:53;76.17;;;45.37;;
36443;SDS011;24692;45.642;13.806;2023-02-18T15:17:26;82.53;;;48.50;;
36443;SDS011;24692;45.642;13.806;2023-02-18T15:19:53;84.57;;;48.20;;
36443;SDS011;24692;45.642;13.806;2023-02-18T15:22:22;78.50;;;46.33;;
36443;SDS011;24692;45.642;13.806;2023-02-18T15:24:50;81.80;;;47.17;;
36443;SDS011;24692;45.642;13.806;2023-02-18T15:27:21;84.87;;;46.77;;
36443;SDS011;24692;45.642;13.806;2023-02-18T15:30:34;87.63;;;48.43;;
36443;SDS011;24692;45.642;13.806;2023-02-18T15:32:53;92.47;;;48.83;;
36443;SDS011;24692;45.642;13.806;2023-02-18T15:35:20;96.50;;;50.27;;
36443;SDS011;24692;45.642;13.806;2023-02-18T15:37:51;94.40;;;50.90;;
36443;SDS011;24692;45.642;13.806;2023-02-18T15:40:18;96.90;;;52.07;;
36443;SDS011;24692;45.642;13.806;2023-02-18T15:42:47;89.83;;;50.03;;
36443;SDS011;24692;45.642;13.806;2023-02-18T15:47:49;90.83;;;50.90;;
36443;SDS011;24692;45.642;13.806;2023-02-18T15:53:13;94.67;;;51.67;;
36443;SDS011;24692;45.642;13.806;2023-02-18T15:55:41;93.23;;;50.27;;
36443;SDS011;24692;45.642;13.806;2023-02-18T15:58:52;94.83;;;52.27;;
36443;SDS011;24692;45.642;13.806;2023-02-18T16:01:00;88.47;;;50.20;;
36443;SDS011;24692;45.642;13.806;2023-02-18T16:03:28;94.50;;;53.00;;
36443;SDS011;24692;45.642;13.806;2023-02-18T16:08:41;97.93;;;52.23;;
36443;SDS011;24692;45.642;13.806;2023-02-18T16:11:22;99.07;;;54.60;;
36443;SDS011;24692;45.642;13.806;2023-02-18T16:13:49;96.73;;;53.67;;
36443;SDS011;24692;45.642;13.806;2023-02-18T16:16:29;108.17;;;56.90;;
36443;SDS011;24692;45.642;13.806;2023-02-18T16:18:57;105.77;;;55.33;;
36443;SDS011;24692;45.642;13.806;2023-02-18T16:21:25;109.40;;;59.63;;
36443;SDS011;24692;45.642;13.806;2023-02-18T16:24:02;122.63;;;62.03;;
36443;SDS011;24692;45.642;13.806;2023-02-18T16:26:46;122.70;;;60.23;;
36443;SDS011;24692;45.642;13.806;2023-02-18T16:32:14;101.33;;;53.93;;
36443;SDS011;24692;45.642;13.806;2023-02-18T16:34:40;104.37;;;57.03;;
36443;SDS011;24692;45.642;13.806;2023-02-18T16:37:05;115.87;;;58.27;;
36443;SDS011;24692;45.642;13.806;2023-02-18T16:39:52;114.30;;;60.03;;
36443;SDS011;24692;45.642;13.806;2023-02-18T16:42:19;113.57;;;57.17;;
36443;SDS011;24692;45.642;13.806;2023-02-18T16:44:45;131.57;;;64.73;;
36443;SDS011;24692;45.642;13.806;2023-02-18T16:47:14;121.23;;;61.37;;
36443;SDS011;24692;45.642;13.806;2023-02-18T16:49:42;126.60;;;64.20;;
36443;SDS011;24692;45.642;13.806;2023-02-18T16:52:10;128.07;;;63.50;;
36443;SDS011;24692;45.642;13.806;2023-02-18T16:54:39;129.20;;;64.63;;
36443;SDS011;24692;45.642;13.806;2023-02-18T16:57:05;126.33;;;63.30;;
36443;SDS011;24692;45.642;13.806;2023-02-18T16:59:30;127.27;;;64.43;;
36443;SDS011;24692;45.642;13.806;2023-02-18T17:01:56;133.60;;;65.10;;
36443;SDS011;24692;45.642;13.806;2023-02-18T17:04:22;120.60;;;60.17;;